Hitchcock, South Dakota
Current Conditions -  °F | °C
As of 11:55 AM on Saturday 20 Dec 2014 (Local Time) from KHON Reporting Station
Haze Haze  
Wind Chill: 17°   Ceiling: 200
Heat Index: 27°   Visibility: 0.75mi
Dew Point: 26°   Wind: 12mph
Humidity: 96%   Direction: 150°SSE
Pressure: 30"   Gusts: NA
Location:  44.63°N, 98.41°W
Report Text: KHON 201755Z AUTO 15010KT 3/4SM BR OVC002 M03/M03 A3000 RMK AO2 SLP177 I6006 T10281033 11028 21044 58008
Loading
Personal Weather Stations






























Interactive Weather Map New forecast layout! Learn more

10-Day Weather Forecast

Advertisements
Track Severe Weather on mobile